createdAt,value
2018-04-17T00:00:56.959Z,85.71
2018-04-17T00:01:56.948Z,86.47
2018-04-17T00:02:56.933Z,86.66
2018-04-17T00:03:56.923Z,86.42
2018-04-17T00:04:56.916Z,86.13
2018-04-17T00:05:56.892Z,85.99
2018-04-17T00:06:56.879Z,85.85
2018-04-17T00:07:56.875Z,85.85
2018-04-17T00:08:56.861Z,86.22
2018-04-17T00:09:56.845Z,86.80
2018-04-17T00:10:56.841Z,85.75
2018-04-17T00:11:56.826Z,85.66
2018-04-17T00:12:56.813Z,84.61
2018-04-17T00:13:56.804Z,84.47
2018-04-17T00:14:56.784Z,84.76
2018-04-17T00:15:56.776Z,85.24
2018-04-17T00:16:56.762Z,85.14
2018-04-17T00:17:56.746Z,85.04
2018-04-17T00:18:56.735Z,85.04
2018-04-17T00:19:56.731Z,84.95
2018-04-17T00:20:56.717Z,85.04
2018-04-17T00:21:56.704Z,85.04
2018-04-17T00:22:56.699Z,85.04
2018-04-17T00:23:56.679Z,85.14
2018-04-17T00:24:56.671Z,85.85
2018-04-17T00:25:56.650Z,85.75
2018-04-17T00:26:56.647Z,85.71
2018-04-17T00:27:56.633Z,85.80
2018-04-17T00:28:56.618Z,85.71
2018-04-17T00:29:56.606Z,85.75
2018-04-17T00:30:56.588Z,86.04
2018-04-17T00:31:56.581Z,85.08
2018-04-17T00:32:56.561Z,85.28
2018-04-17T00:33:56.558Z,85.18
2018-04-17T00:34:56.540Z,85.47
2018-04-17T00:35:56.523Z,84.61
2018-04-17T00:36:56.516Z,84.42
2018-04-17T00:37:56.506Z,84.47
2018-04-17T00:38:56.494Z,84.66
2018-04-17T00:39:56.482Z,85.61
2018-04-17T00:40:56.481Z,85.14
2018-04-17T00:41:56.464Z,85.80
2018-04-17T00:42:56.442Z,85.99
2018-04-17T00:43:56.441Z,86.47
2018-04-17T00:44:56.416Z,85.90
2018-04-17T00:45:56.406Z,86.38
2018-04-17T00:46:56.398Z,86.66
2018-04-17T00:47:56.385Z,86.09
2018-04-17T00:48:56.367Z,86.38
2018-04-17T00:49:56.362Z,86.66
2018-04-17T00:50:56.358Z,86.28
2018-04-17T00:51:56.335Z,86.18
2018-04-17T00:52:56.321Z,87.42
2018-04-17T00:53:56.305Z,87.13
2018-04-17T00:54:56.294Z,87.13
2018-04-17T00:55:56.285Z,86.94
2018-04-17T00:56:56.271Z,86.94
2018-04-17T00:57:56.260Z,87.04
2018-04-17T00:58:56.248Z,86.66
2018-04-17T00:59:56.231Z,86.47
2018-04-17T01:00:56.224Z,86.76
2018-04-17T01:01:56.214Z,86.09
2018-04-17T01:02:56.199Z,86.09
2018-04-17T01:03:56.187Z,85.71
2018-04-17T01:04:56.175Z,85.99
2018-04-17T01:05:56.161Z,85.14
2018-04-17T01:06:56.151Z,85.14
2018-04-17T01:07:56.139Z,85.18
2018-04-17T01:08:56.126Z,84.99
2018-04-17T01:09:56.115Z,85.37
2018-04-17T01:10:56.101Z,85.08
2018-04-17T01:11:56.087Z,84.99
2018-04-17T01:12:56.074Z,84.80
2018-04-17T01:13:56.065Z,84.99
2018-04-17T01:14:56.046Z,84.80
2018-04-17T01:15:56.040Z,84.85
2018-04-17T01:16:56.025Z,84.76
2018-04-17T01:17:56.015Z,85.24
2018-04-17T01:18:56.004Z,85.42
2018-04-17T01:19:55.991Z,85.33
2018-04-17T01:20:55.971Z,85.14
2018-04-17T01:21:55.970Z,85.52
2018-04-17T01:22:55.951Z,85.99
2018-04-17T01:23:55.935Z,85.99
2018-04-17T01:24:55.932Z,84.95
2018-04-17T01:25:55.925Z,85.24
2018-04-17T01:26:55.909Z,84.95
2018-04-17T01:27:55.894Z,85.99
2018-04-17T01:28:55.877Z,85.99
2018-04-17T01:29:55.871Z,85.80
2018-04-17T01:30:55.853Z,85.52
2018-04-17T01:31:55.842Z,85.14
2018-04-17T01:32:55.826Z,85.52
2018-04-17T01:33:55.815Z,85.04
2018-04-17T01:34:55.803Z,85.04
2018-04-17T01:35:55.814Z,85.71
2018-04-17T01:36:55.782Z,85.90
2018-04-17T01:37:55.769Z,85.71
2018-04-17T01:38:55.757Z,85.61
2018-04-17T01:39:55.739Z,85.80
2018-04-17T01:40:55.726Z,85.71
2018-04-17T01:41:55.722Z,85.61
2018-04-17T01:42:55.700Z,85.71
2018-04-17T01:43:55.693Z,85.52
2018-04-17T01:44:55.678Z,85.80
2018-04-17T01:45:55.666Z,85.99
2018-04-17T01:46:55.658Z,85.80
2018-04-17T01:47:55.648Z,86.09
2018-04-17T01:48:55.623Z,86.09
2018-04-17T01:49:55.613Z,86.28
2018-04-17T01:50:55.603Z,86.38
2018-04-17T01:51:55.591Z,86.28
2018-04-17T01:52:55.580Z,86.94
2018-04-17T01:53:55.571Z,86.94
2018-04-17T01:54:55.558Z,87.13
2018-04-17T01:55:55.544Z,86.66
2018-04-17T01:56:55.529Z,86.66
2018-04-17T01:57:55.517Z,86.47
2018-04-17T01:58:55.509Z,87.08
2018-04-17T01:59:55.498Z,87.08
2018-04-17T02:00:55.485Z,86.99
2018-04-17T02:01:55.479Z,86.99
2018-04-17T02:02:55.458Z,86.42
2018-04-17T02:03:55.448Z,85.18
2018-04-17T02:04:55.433Z,84.70
2018-04-17T02:05:55.421Z,84.13
2018-04-17T02:06:55.412Z,83.94
2018-04-17T02:07:55.404Z,84.80
2018-04-17T02:08:55.386Z,84.76
2018-04-17T02:09:55.371Z,84.95
2018-04-17T02:10:55.361Z,85.33
2018-04-17T02:11:55.363Z,85.14
2018-04-17T02:12:55.336Z,85.61
2018-04-17T02:13:55.330Z,85.90
2018-04-17T02:14:55.320Z,86.09
2018-04-17T02:15:55.314Z,86.09
2018-04-17T02:16:55.287Z,86.66
2018-04-17T02:17:55.280Z,86.28
2018-04-17T02:18:55.261Z,86.28
2018-04-17T02:19:55.253Z,86.47
2018-04-17T02:20:55.237Z,87.42
2018-04-17T02:21:55.230Z,87.23
2018-04-17T02:22:55.213Z,86.76
2018-04-17T02:23:55.200Z,86.94
2018-04-17T02:24:55.201Z,86.94
2018-04-17T02:25:55.177Z,87.23
2018-04-17T02:26:55.161Z,87.32
2018-04-17T02:27:55.151Z,87.52
2018-04-17T02:28:55.142Z,87.32
2018-04-17T02:29:55.130Z,88.09
2018-04-17T02:30:55.113Z,87.61
2018-04-17T02:31:55.109Z,87.13
2018-04-17T02:32:55.093Z,87.42
2018-04-17T02:33:55.078Z,87.32
2018-04-17T02:34:55.065Z,87.23
2018-04-17T02:35:55.053Z,87.23
2018-04-17T02:36:55.054Z,85.99
2018-04-17T02:37:55.027Z,85.14
2018-04-17T02:38:55.014Z,85.24
2018-04-17T02:39:55.009Z,84.76
2018-04-17T02:40:54.988Z,84.76
2018-04-17T02:41:54.978Z,84.95
2018-04-17T02:42:54.967Z,84.56
2018-04-17T02:43:54.954Z,84.66
2018-04-17T02:44:54.945Z,85.04
2018-04-17T02:45:54.937Z,85.14
2018-04-17T02:46:54.915Z,84.95
2018-04-17T02:47:54.913Z,84.95
2018-04-17T02:48:54.890Z,84.56
2018-04-17T02:49:54.873Z,84.47
2018-04-17T02:50:54.865Z,84.66
2018-04-17T02:51:54.853Z,84.38
2018-04-17T02:52:54.845Z,84.76
2018-04-17T02:53:54.833Z,84.95
2018-04-17T02:54:54.818Z,84.85
2018-04-17T02:55:54.808Z,84.95
2018-04-17T02:56:54.793Z,84.95
2018-04-17T02:57:54.774Z,84.52
2018-04-17T02:58:54.763Z,84.61
2018-04-17T02:59:54.756Z,84.33
2018-04-17T03:00:54.740Z,84.19
2018-04-17T03:01:54.735Z,84.52
2018-04-17T03:02:54.717Z,84.56
2018-04-17T03:03:54.703Z,84.99
2018-04-17T03:04:54.697Z,85.24
2018-04-17T03:05:54.674Z,85.04
2018-04-17T03:06:54.663Z,84.85
2018-04-17T03:07:54.651Z,84.95
2018-04-17T03:08:54.640Z,84.47
2018-04-17T03:09:54.629Z,84.76
2018-04-17T03:10:54.616Z,84.95
2018-04-17T03:11:54.606Z,84.85
2018-04-17T03:12:54.589Z,84.95
2018-04-17T03:13:54.579Z,84.95
2018-04-17T03:14:54.571Z,84.76
2018-04-17T03:15:54.554Z,84.95
2018-04-17T03:16:54.543Z,84.95
2018-04-17T03:17:54.529Z,84.56
2018-04-17T03:18:54.521Z,84.66
2018-04-17T03:19:54.510Z,84.76
2018-04-17T03:20:54.497Z,84.66
2018-04-17T03:21:54.478Z,84.09
2018-04-17T03:22:54.474Z,84.19
2018-04-17T03:23:54.457Z,84.47
2018-04-17T03:24:54.442Z,84.00
2018-04-17T03:25:54.468Z,84.38
2018-04-17T03:26:54.420Z,84.09
2018-04-17T03:27:54.412Z,83.90
2018-04-17T03:28:54.403Z,84.00
2018-04-17T03:29:54.387Z,84.28
2018-04-17T03:30:54.365Z,83.62
2018-04-17T03:31:54.353Z,83.71
2018-04-17T03:32:54.355Z,83.90
2018-04-17T03:33:54.331Z,84.19
2018-04-17T03:34:54.324Z,84.09
2018-04-17T03:35:54.307Z,84.28
2018-04-17T03:36:54.295Z,84.19
2018-04-17T03:37:54.285Z,84.56
2018-04-17T03:38:54.273Z,84.47
2018-04-17T03:39:54.261Z,84.56
2018-04-17T03:40:54.242Z,84.66
2018-04-17T03:41:54.236Z,84.56
2018-04-17T03:42:54.220Z,84.56
2018-04-17T03:43:54.210Z,84.56
2018-04-17T03:44:54.194Z,84.09
2018-04-17T03:45:54.184Z,84.09
2018-04-17T03:46:54.168Z,84.47
2018-04-17T03:47:54.153Z,84.09
2018-04-17T03:48:54.148Z,84.19
2018-04-17T03:49:54.140Z,84.09
2018-04-17T03:50:54.126Z,84.09
2018-04-17T03:51:54.110Z,84.66
2018-04-17T03:52:54.096Z,84.56
2018-04-17T03:53:54.084Z,84.19
2018-04-17T03:54:54.072Z,84.00
2018-04-17T03:55:54.063Z,84.38
2018-04-17T03:56:54.051Z,84.19
2018-04-17T03:57:54.034Z,84.19
2018-04-17T03:58:54.017Z,83.76
2018-04-17T03:59:54.013Z,84.33
2018-04-17T04:00:53.995Z,84.14
2018-04-17T04:01:53.985Z,83.86
2018-04-17T04:02:53.971Z,83.58
2018-04-17T04:03:53.966Z,84.38
2018-04-17T04:04:53.941Z,84.14
2018-04-17T04:05:53.931Z,83.95
2018-04-17T04:06:53.916Z,84.24
2018-04-17T04:07:53.907Z,84.24
2018-04-17T04:08:53.897Z,84.14
2018-04-17T04:09:53.897Z,84.05
2018-04-17T04:10:53.891Z,83.95
2018-04-17T04:11:53.859Z,84.72
2018-04-17T04:12:53.860Z,84.43
2018-04-17T04:13:53.842Z,84.91
2018-04-17T04:14:53.818Z,85.00
2018-04-17T04:15:53.810Z,84.91
2018-04-17T04:16:53.793Z,85.19
2018-04-17T04:17:53.780Z,85.00
2018-04-17T04:18:53.778Z,84.72
2018-04-17T04:19:53.756Z,84.52
2018-04-17T04:20:53.751Z,84.72
2018-04-17T04:21:53.731Z,84.72
2018-04-17T04:22:53.720Z,84.81
2018-04-17T04:23:53.714Z,84.81
2018-04-17T04:24:53.705Z,84.43
2018-04-17T04:25:53.681Z,83.95
2018-04-17T04:26:53.666Z,84.05
2018-04-17T04:27:53.663Z,84.05
2018-04-17T04:28:53.647Z,84.52
2018-04-17T04:29:53.632Z,84.52
2018-04-17T04:30:53.621Z,84.72
2018-04-17T04:31:53.605Z,84.72
2018-04-17T04:32:53.595Z,84.52
2018-04-17T04:33:53.583Z,85.00
2018-04-17T04:34:53.588Z,85.10
2018-04-17T04:35:53.557Z,85.19
2018-04-17T04:36:53.544Z,85.00
2018-04-17T04:37:53.531Z,85.19
2018-04-17T04:38:53.521Z,85.95
2018-04-17T04:39:53.515Z,86.05
2018-04-17T04:40:53.493Z,85.76
2018-04-17T04:41:53.478Z,86.24
2018-04-17T04:42:53.471Z,86.05
2018-04-17T04:43:53.455Z,86.33
2018-04-17T04:44:53.446Z,86.43
2018-04-17T04:45:53.442Z,86.57
2018-04-17T04:46:53.423Z,86.33
2018-04-17T04:47:53.401Z,85.95
2018-04-17T04:48:53.394Z,86.33
2018-04-17T04:49:53.380Z,86.61
2018-04-17T04:50:53.371Z,86.61
2018-04-17T04:51:53.367Z,86.05
2018-04-17T04:52:53.341Z,86.52
2018-04-17T04:53:53.336Z,86.14
2018-04-17T04:54:53.316Z,86.05
2018-04-17T04:55:53.301Z,85.86
2018-04-17T04:56:53.299Z,85.76
2018-04-17T04:57:53.277Z,85.66
2018-04-17T04:58:53.263Z,85.95
2018-04-17T04:59:53.253Z,85.38
2018-04-17T05:00:53.243Z,85.66
2018-04-17T05:01:53.227Z,85.76
2018-04-17T05:02:53.212Z,86.05
2018-04-17T05:03:53.202Z,85.66
2018-04-17T05:04:53.226Z,86.05
2018-04-17T05:05:53.171Z,86.24
2018-04-17T05:06:53.159Z,86.00
2018-04-17T05:07:53.152Z,86.29
2018-04-17T05:08:53.138Z,86.38
2018-04-17T05:09:53.126Z,86.67
2018-04-17T05:10:53.110Z,87.34
2018-04-17T05:11:53.097Z,87.34
2018-04-17T05:12:53.121Z,86.67
2018-04-17T05:13:53.072Z,87.05
2018-04-17T05:14:53.062Z,86.86
2018-04-17T05:15:53.050Z,87.09
2018-04-17T05:16:53.016Z,86.29
2018-04-17T05:17:53.020Z,86.43
2018-04-17T05:18:53.001Z,85.76
2018-04-17T05:19:52.974Z,85.19
2018-04-17T05:20:52.974Z,85.47
2018-04-17T05:21:52.948Z,84.91
2018-04-17T05:22:52.937Z,85.19
2018-04-17T05:23:52.961Z,85.19
2018-04-17T05:24:52.919Z,85.19
2018-04-17T05:25:52.903Z,85.00
2018-04-17T05:26:52.890Z,85.19
2018-04-17T05:27:52.881Z,85.19
2018-04-17T05:28:52.863Z,84.91
2018-04-17T05:29:52.854Z,85.10
2018-04-17T05:30:52.843Z,85.95
2018-04-17T05:31:52.821Z,86.05
2018-04-17T05:32:52.812Z,85.10
2018-04-17T05:33:52.792Z,85.19
2018-04-17T05:34:52.790Z,85.47
2018-04-17T05:35:52.781Z,85.47
2018-04-17T05:36:52.778Z,84.91
2018-04-17T05:37:52.745Z,84.91
2018-04-17T05:38:52.735Z,84.81
2018-04-17T05:39:52.725Z,84.91
2018-04-17T05:40:52.710Z,84.24
2018-04-17T05:41:52.694Z,84.52
2018-04-17T05:42:52.682Z,84.52
2018-04-17T05:43:52.674Z,85.19
2018-04-17T05:44:52.659Z,85.28
2018-04-17T05:45:52.647Z,85.28
2018-04-17T05:46:52.637Z,85.10
2018-04-17T05:47:52.619Z,85.19
2018-04-17T05:48:52.609Z,85.38
2018-04-17T05:49:52.590Z,85.33
2018-04-17T05:50:52.582Z,85.19
2018-04-17T05:51:52.566Z,85.00
2018-04-17T05:52:52.554Z,85.19
2018-04-17T05:53:52.549Z,85.47
2018-04-17T05:54:52.533Z,85.86
2018-04-17T05:55:52.540Z,85.76
2018-04-17T05:56:52.508Z,85.57
2018-04-17T05:57:52.488Z,85.76
2018-04-17T05:58:52.479Z,85.38
2018-04-17T05:59:52.466Z,84.95
2018-04-17T06:00:52.453Z,85.00
2018-04-17T06:01:52.441Z,85.28
2018-04-17T06:02:52.431Z,85.28
2018-04-17T06:03:52.414Z,85.28
2018-04-17T06:04:52.407Z,85.10
2018-04-17T06:05:52.391Z,85.10
2018-04-17T06:06:52.383Z,85.10
2018-04-17T06:07:52.368Z,85.00
2018-04-17T06:08:52.349Z,85.10
2018-04-17T06:09:52.341Z,85.33
2018-04-17T06:10:52.329Z,85.10
2018-04-17T06:11:52.319Z,85.24
2018-04-17T06:12:52.305Z,85.14
2018-04-17T06:13:52.291Z,85.61
2018-04-17T06:14:52.284Z,85.76
2018-04-17T06:15:52.264Z,86.14
2018-04-17T06:16:52.250Z,86.33
2018-04-17T06:17:52.244Z,85.95
2018-04-17T06:18:52.222Z,86.14
2018-04-17T06:19:52.238Z,86.43
2018-04-17T06:20:52.205Z,86.14
2018-04-17T06:21:52.185Z,86.71
2018-04-17T06:22:52.181Z,86.14
2018-04-17T06:23:52.170Z,85.76
2018-04-17T06:24:52.155Z,86.24
2018-04-17T06:25:52.142Z,85.99
2018-04-17T06:26:52.123Z,86.09
2018-04-17T06:27:52.113Z,85.71
2018-04-17T06:28:52.102Z,86.09
2018-04-17T06:29:52.086Z,85.99
2018-04-17T06:30:52.074Z,85.80
2018-04-17T06:31:52.062Z,85.99
2018-04-17T06:32:52.047Z,85.24
2018-04-17T06:33:52.030Z,85.56
2018-04-17T06:34:52.026Z,84.70
2018-04-17T06:35:52.012Z,84.61
2018-04-17T06:36:52.001Z,84.13
2018-04-17T06:37:51.987Z,84.04
2018-04-17T06:38:51.977Z,83.75
2018-04-17T06:39:51.959Z,83.80
2018-04-17T06:40:51.954Z,83.22
2018-04-17T06:41:51.947Z,83.41
2018-04-17T06:42:51.928Z,83.32
2018-04-17T06:43:51.919Z,83.51
2018-04-17T06:44:51.899Z,82.84
2018-04-17T06:45:51.889Z,83.07
2018-04-17T06:46:51.877Z,82.69
2018-04-17T06:47:51.862Z,82.41
2018-04-17T06:48:51.852Z,81.65
2018-04-17T06:49:51.838Z,81.46
2018-04-17T06:50:51.825Z,81.17
2018-04-17T06:51:51.812Z,81.17
2018-04-17T06:52:51.845Z,80.73
2018-04-17T06:53:51.787Z,79.97
2018-04-17T06:54:51.783Z,80.44
2018-04-17T06:55:51.791Z,80.83
2018-04-17T06:56:51.763Z,80.35
2018-04-17T06:57:51.743Z,79.78
2018-04-17T06:58:51.738Z,80.07
2018-04-17T06:59:51.722Z,79.11
2018-04-17T07:00:51.708Z,79.40
2018-04-17T07:01:51.696Z,79.02
2018-04-17T07:02:51.704Z,78.64
2018-04-17T07:03:51.672Z,78.49
2018-04-17T07:04:51.662Z,78.20
2018-04-17T07:05:51.663Z,78.01
2018-04-17T07:06:51.647Z,77.53
2018-04-17T07:07:51.648Z,76.96
2018-04-17T07:08:51.621Z,77.53
2018-04-17T07:09:51.603Z,77.72
2018-04-17T07:10:51.597Z,78.20
2018-04-17T07:11:51.583Z,77.62
2018-04-17T07:12:51.570Z,77.44
2018-04-17T07:13:51.562Z,77.67
2018-04-17T07:14:51.542Z,77.95
2018-04-17T07:15:51.535Z,78.14
2018-04-17T07:16:51.528Z,78.14
2018-04-17T07:17:51.512Z,77.47
2018-04-17T07:18:51.510Z,77.19
2018-04-17T07:19:51.494Z,77.67
2018-04-17T07:20:51.478Z,76.71
2018-04-17T07:21:51.468Z,75.18
2018-04-17T07:22:51.466Z,75.47
2018-04-17T07:23:51.445Z,75.95
2018-04-17T07:24:51.437Z,76.62
2018-04-17T07:25:51.428Z,76.62
2018-04-17T07:26:51.415Z,76.46
2018-04-17T07:27:51.403Z,76.08
2018-04-17T07:28:51.393Z,76.08
2018-04-17T07:29:51.381Z,76.46
2018-04-17T07:30:51.371Z,75.51
2018-04-17T07:31:51.353Z,75.60
2018-04-17T07:32:51.346Z,74.93
2018-04-17T07:33:51.342Z,73.79
2018-04-17T07:34:51.332Z,72.83
2018-04-17T07:35:51.320Z,73.12
2018-04-17T07:36:51.308Z,73.03
2018-04-17T07:37:51.291Z,73.41
2018-04-17T07:38:51.290Z,73.41
2018-04-17T07:39:51.276Z,72.74
2018-04-17T07:40:51.265Z,72.45
2018-04-17T07:41:51.258Z,71.88
2018-04-17T07:42:51.245Z,72.55
2018-04-17T07:43:51.233Z,71.88
2018-04-17T07:44:51.221Z,71.78
2018-04-17T07:45:51.214Z,71.31
2018-04-17T07:46:51.204Z,71.41
2018-04-17T07:47:51.190Z,71.98
2018-04-17T07:48:51.183Z,71.63
2018-04-17T07:49:51.167Z,70.45
2018-04-17T07:50:51.163Z,70.83
2018-04-17T07:51:51.151Z,70.29
2018-04-17T07:52:51.139Z,70.45
2018-04-17T07:53:51.122Z,70.20
2018-04-17T07:54:51.115Z,69.97
2018-04-17T07:55:51.114Z,69.97
2018-04-17T07:56:51.096Z,69.78
2018-04-17T07:57:51.080Z,70.01
2018-04-17T07:58:51.074Z,69.82
2018-04-17T07:59:51.069Z,69.62
2018-04-17T08:00:51.056Z,69.05
2018-04-17T08:01:51.042Z,68.96
2018-04-17T08:02:51.029Z,68.76
2018-04-17T08:03:51.026Z,68.86
2018-04-17T08:04:51.016Z,68.86
2018-04-17T08:05:50.999Z,68.67
2018-04-17T08:06:50.993Z,68.29
2018-04-17T08:07:50.985Z,68.38
2018-04-17T08:08:50.969Z,68.48
2018-04-17T08:09:50.962Z,70.29
2018-04-17T08:10:50.949Z,70.42
2018-04-17T08:11:50.955Z,70.71
2018-04-17T08:12:50.925Z,70.81
2018-04-17T08:13:50.916Z,68.80
2018-04-17T08:14:50.916Z,68.23
2018-04-17T08:15:50.904Z,67.84
2018-04-17T08:16:50.889Z,67.08
2018-04-17T08:17:50.879Z,67.65
2018-04-17T08:18:50.863Z,67.94
2018-04-17T08:19:50.853Z,67.11
2018-04-17T08:20:50.850Z,67.55
2018-04-17T08:21:50.839Z,67.11
2018-04-17T08:22:50.829Z,65.39
2018-04-17T08:23:50.817Z,66.41
2018-04-17T08:24:50.805Z,66.25
2018-04-17T08:25:50.798Z,65.58
2018-04-17T08:26:50.791Z,64.82
2018-04-17T08:27:50.782Z,64.91
2018-04-17T08:28:50.770Z,64.62
2018-04-17T08:29:50.755Z,63.86
2018-04-17T08:30:50.751Z,63.57
2018-04-17T08:31:50.732Z,65.68
2018-04-17T08:32:50.736Z,65.30
2018-04-17T08:33:50.712Z,63.96
2018-04-17T08:34:50.703Z,63.51
2018-04-17T08:35:50.701Z,63.67
2018-04-17T08:36:50.703Z,63.86
2018-04-17T08:37:50.683Z,63.67
2018-04-17T08:38:50.670Z,63.57
2018-04-17T08:39:50.659Z,63.19
2018-04-17T08:40:50.649Z,63.57
2018-04-17T08:41:50.638Z,62.62
2018-04-17T08:42:50.675Z,62.71
2018-04-17T08:43:50.632Z,62.84
2018-04-17T08:44:50.614Z,63.32
2018-04-17T08:45:50.609Z,62.27
2018-04-17T08:46:50.594Z,62.08
2018-04-17T08:47:50.583Z,61.41
2018-04-17T08:48:50.596Z,61.12
2018-04-17T08:49:50.561Z,61.41
2018-04-17T08:50:50.557Z,61.79
2018-04-17T08:51:50.542Z,61.69
2018-04-17T08:52:50.533Z,62.27
2018-04-17T08:53:50.525Z,61.22
2018-04-17T08:54:50.517Z,61.98
2018-04-17T08:55:50.505Z,62.08
2018-04-17T08:56:50.498Z,61.63
2018-04-17T08:57:50.485Z,61.25
2018-04-17T08:58:50.478Z,61.34
2018-04-17T08:59:50.478Z,61.15
2018-04-17T09:00:50.460Z,59.91
2018-04-17T09:01:50.447Z,61.05
2018-04-17T09:02:50.438Z,60.19
2018-04-17T09:03:50.431Z,59.33
2018-04-17T09:04:50.418Z,58.86
2018-04-17T09:05:50.418Z,58.28
2018-04-17T09:06:50.409Z,56.75
2018-04-17T09:07:50.396Z,56.94
2018-04-17T09:08:50.384Z,56.39
2018-04-17T09:09:50.377Z,56.56
2018-04-17T09:10:50.363Z,56.49
2018-04-17T09:11:50.378Z,55.98
2018-04-17T09:12:50.349Z,55.69
2018-04-17T09:13:50.343Z,56.65
2018-04-17T09:14:50.327Z,56.75
2018-04-17T09:15:50.319Z,56.84
2018-04-17T09:16:50.314Z,56.68
2018-04-17T09:17:50.302Z,56.77
2018-04-17T09:18:50.294Z,55.73
2018-04-17T09:19:50.292Z,53.71
2018-04-17T09:20:50.275Z,54.28
2018-04-17T09:21:50.268Z,54.96
2018-04-17T09:22:50.255Z,55.91
2018-04-17T09:23:50.252Z,55.34
2018-04-17T09:24:50.240Z,55.73
2018-04-17T09:25:50.233Z,55.94
2018-04-17T09:26:50.221Z,57.92
2018-04-17T09:27:50.208Z,58.79
2018-04-17T09:28:50.221Z,56.77
2018-04-17T09:29:50.194Z,55.94
2018-04-17T09:30:50.184Z,55.63
2018-04-17T09:31:50.175Z,55.08
2018-04-17T09:32:50.170Z,56.01
2018-04-17T09:33:50.158Z,56.61
2018-04-17T09:34:50.152Z,55.65
2018-04-17T09:35:50.163Z,55.56
2018-04-17T09:36:50.133Z,55.75
2018-04-17T09:37:50.126Z,54.60
2018-04-17T09:38:50.118Z,53.93
2018-04-17T09:39:50.104Z,54.89
2018-04-17T09:40:50.097Z,54.22
2018-04-17T09:41:50.089Z,53.74
2018-04-17T09:42:50.081Z,54.60
2018-04-17T09:43:50.077Z,54.50
2018-04-17T09:44:50.065Z,54.89
2018-04-17T09:45:50.057Z,53.74
2018-04-17T09:46:50.045Z,53.64
2018-04-17T09:47:50.041Z,53.83
2018-04-17T09:48:50.026Z,53.26
2018-04-17T09:49:50.024Z,53.93
2018-04-17T09:50:50.007Z,54.41
2018-04-17T09:51:50.011Z,54.79
2018-04-17T09:52:49.995Z,55.18
2018-04-17T09:53:49.985Z,54.99
2018-04-17T09:54:49.976Z,55.58
2018-04-17T09:55:49.971Z,55.46
2018-04-17T09:56:49.961Z,54.44
2018-04-17T09:57:49.957Z,54.05
2018-04-17T09:58:49.944Z,53.96
2018-04-17T09:59:49.936Z,53.19
2018-04-17T10:00:49.930Z,51.46
2018-04-17T10:01:49.918Z,52.14
2018-04-17T10:02:49.911Z,53.96
2018-04-17T10:03:49.901Z,54.17
2018-04-17T10:04:49.895Z,54.66
2018-04-17T10:05:49.877Z,53.89
2018-04-17T10:06:49.875Z,54.66
2018-04-17T10:07:49.870Z,52.26
2018-04-17T10:08:49.924Z,52.07
2018-04-17T10:09:49.846Z,52.07
2018-04-17T10:10:49.842Z,51.78
2018-04-17T10:11:49.836Z,51.49
2018-04-17T10:12:49.825Z,51.01
2018-04-17T10:13:49.818Z,51.30
2018-04-17T10:14:49.811Z,51.49
2018-04-17T10:15:49.799Z,51.97
2018-04-17T10:16:49.799Z,52.26
2018-04-17T10:17:49.788Z,51.97
2018-04-17T10:18:49.772Z,51.68
2018-04-17T10:19:49.769Z,51.10
2018-04-17T10:20:49.761Z,50.73
2018-04-17T10:21:49.753Z,49.69
2018-04-17T10:22:49.742Z,50.17
2018-04-17T10:23:49.735Z,50.08
2018-04-17T10:24:49.730Z,52.38
2018-04-17T10:25:49.723Z,50.37
2018-04-17T10:26:49.715Z,50.27
2018-04-17T10:27:49.714Z,51.42
2018-04-17T10:28:49.699Z,53.85
2018-04-17T10:29:49.715Z,52.50
2018-04-17T10:30:49.679Z,50.10
2018-04-17T10:31:49.675Z,50.08
2018-04-17T10:32:49.671Z,49.50
2018-04-17T10:33:49.657Z,49.79
2018-04-17T10:34:49.652Z,49.60
2018-04-17T10:35:49.642Z,50.56
2018-04-17T10:36:49.636Z,50.84
2018-04-17T10:37:49.627Z,50.08
2018-04-17T10:38:49.617Z,51.45
2018-04-17T10:39:49.647Z,50.29
2018-04-17T10:40:49.607Z,49.72
2018-04-17T10:41:49.610Z,49.72
2018-04-17T10:42:49.597Z,50.49
2018-04-17T10:43:49.583Z,50.56
2018-04-17T10:44:49.584Z,50.01
2018-04-17T10:45:49.568Z,48.07
2018-04-17T10:46:49.559Z,48.93
2018-04-17T10:47:49.555Z,49.82
2018-04-17T10:48:49.548Z,49.15
2018-04-17T10:49:49.552Z,50.87
2018-04-17T10:50:49.530Z,49.72
2018-04-17T10:51:49.523Z,49.72
2018-04-17T10:52:49.515Z,49.43
2018-04-17T10:53:49.510Z,50.68
2018-04-17T10:54:49.494Z,50.39
2018-04-17T10:55:49.493Z,49.55
2018-04-17T10:56:49.487Z,48.40
2018-04-17T10:57:49.469Z,48.59
2018-04-17T10:58:49.473Z,48.88
2018-04-17T10:59:49.496Z,48.49
2018-04-17T11:00:49.451Z,49.65
2018-04-17T11:01:49.450Z,48.40
2018-04-17T11:02:49.442Z,48.11
2018-04-17T11:03:49.435Z,48.69
2018-04-17T11:04:49.428Z,48.02
2018-04-17T11:05:49.414Z,47.53
2018-04-17T11:06:49.418Z,46.58
2018-04-17T11:07:49.408Z,46.67
2018-04-17T11:08:49.396Z,47.82
2018-04-17T11:09:49.387Z,48.71
2018-04-17T11:10:49.383Z,46.96
2018-04-17T11:11:49.373Z,45.90
2018-04-17T11:12:49.371Z,47.08
2018-04-17T11:13:49.359Z,48.04
2018-04-17T11:14:49.363Z,45.64
2018-04-17T11:15:49.345Z,45.73
2018-04-17T11:16:49.337Z,46.89
2018-04-17T11:17:49.336Z,47.56
2018-04-17T11:18:49.329Z,46.69
2018-04-17T11:19:49.320Z,48.13
2018-04-17T11:20:49.309Z,46.79
2018-04-17T11:21:49.305Z,45.73
2018-04-17T11:22:49.297Z,44.77
2018-04-17T11:23:49.296Z,44.68
2018-04-17T11:24:49.281Z,43.91
2018-04-17T11:25:49.277Z,44.58
2018-04-17T11:26:49.273Z,44.29
2018-04-17T11:27:49.263Z,44.10
2018-04-17T11:28:49.260Z,46.12
2018-04-17T11:29:49.252Z,45.15
2018-04-17T11:30:49.242Z,43.71
2018-04-17T11:31:49.236Z,46.72
2018-04-17T11:32:49.229Z,44.12
2018-04-17T11:33:49.221Z,43.74
2018-04-17T11:34:49.217Z,42.39
2018-04-17T11:35:49.213Z,44.70
2018-04-17T11:36:49.201Z,47.31
2018-04-17T11:37:49.190Z,44.72
2018-04-17T11:38:49.187Z,42.20
2018-04-17T11:39:49.185Z,43.07
2018-04-17T11:40:49.177Z,43.35
2018-04-17T11:41:49.168Z,43.16
2018-04-17T11:42:49.171Z,41.82
2018-04-17T11:43:49.158Z,41.91
2018-04-17T11:44:49.148Z,42.87
2018-04-17T11:45:49.144Z,42.30
2018-04-17T11:46:49.136Z,43.57
2018-04-17T11:47:49.137Z,45.39
2018-04-17T11:48:49.123Z,44.02
2018-04-17T11:49:49.121Z,42.58
2018-04-17T11:50:49.109Z,42.00
2018-04-17T11:51:49.107Z,42.87
2018-04-17T11:52:49.097Z,42.87
2018-04-17T11:53:49.093Z,43.45
2018-04-17T11:54:49.081Z,41.82
2018-04-17T11:55:49.081Z,41.93
2018-04-17T11:56:49.076Z,43.37
2018-04-17T11:57:49.070Z,42.12
2018-04-17T11:58:49.066Z,40.78
2018-04-17T11:59:49.056Z,40.01
2018-04-17T12:00:49.043Z,39.91
2018-04-17T12:01:49.037Z,40.68
2018-04-17T12:02:49.031Z,40.30
2018-04-17T12:03:49.027Z,40.30
2018-04-17T12:04:49.022Z,40.76
2018-04-17T12:05:49.018Z,42.00
2018-04-17T12:06:49.051Z,42.20
2018-04-17T12:07:49.008Z,42.00
2018-04-17T12:08:48.996Z,42.20
2018-04-17T12:09:48.985Z,44.60
2018-04-17T12:10:48.980Z,44.41
2018-04-17T12:11:48.978Z,43.85
2018-04-17T12:12:48.969Z,43.47
2018-04-17T12:13:48.959Z,42.97
2018-04-17T12:14:48.961Z,43.35
2018-04-17T12:15:48.947Z,43.07
2018-04-17T12:16:48.941Z,43.45
2018-04-17T12:17:48.932Z,43.84
2018-04-17T12:18:48.929Z,41.50
2018-04-17T12:19:48.921Z,40.25
2018-04-17T12:20:48.917Z,39.97
2018-04-17T12:21:48.915Z,41.20
2018-04-17T12:22:48.903Z,42.64
2018-04-17T12:23:48.901Z,42.06
2018-04-17T12:24:48.899Z,40.81
2018-04-17T12:25:48.884Z,41.75
2018-04-17T12:26:48.876Z,42.71
2018-04-17T12:27:48.877Z,43.19
2018-04-17T12:28:48.866Z,42.43
2018-04-17T12:29:48.860Z,42.35
2018-04-17T12:30:48.845Z,41.87
2018-04-17T12:31:48.840Z,41.70
2018-04-17T12:32:48.840Z,42.47
2018-04-17T12:33:48.830Z,41.60
2018-04-17T12:34:48.825Z,42.39
2018-04-17T12:35:48.816Z,41.72
2018-04-17T12:36:48.812Z,40.58
2018-04-17T12:37:48.802Z,40.20
2018-04-17T12:38:48.789Z,40.51
2018-04-17T12:39:48.790Z,39.26
2018-04-17T12:40:48.783Z,37.52
2018-04-17T12:41:48.769Z,36.85
2018-04-17T12:42:48.769Z,37.02
2018-04-17T12:43:48.759Z,37.43
2018-04-17T12:44:48.757Z,37.02
2018-04-17T12:45:48.744Z,38.10
2018-04-17T12:46:48.746Z,37.24
2018-04-17T12:47:48.734Z,36.08
2018-04-17T12:48:48.729Z,37.16
2018-04-17T12:49:48.734Z,38.12
2018-04-17T12:50:48.724Z,36.39
2018-04-17T12:51:48.722Z,35.42
2018-04-17T12:52:48.701Z,36.95